This is the latest recevied weather packets stored in our database for station/object DM4XI-13. If no packets are shown the sender has not sent any weather packets the latest 1 day(s).
| Time | Temp. | Humidity | Pressure | Rain* | Wind** | Luminosity | Snow |
|---|---|---|---|---|---|---|---|
| 1778100135 | 11.11° C | 95% | 1005.8 hPa | 0.51 mm | 0.89 m/s, 165° | 0 W/m² | - |
| 1778099952 | 11.11° C | 95% | 1005.8 hPa | 0.51 mm | 0 m/s | 0 W/m² | - |
| 1778099891 | 11.11° C | 95% | 1005.7 hPa | 0.51 mm | 0.45 m/s, 188° | 0 W/m² | - |
| 1778099830 | 11.11° C | 95% | 1005.7 hPa | 0.51 mm | 0.45 m/s, 181° | 0 W/m² | - |
| 1778099647 | 11.11° C | 95% | 1005.5 hPa | 0.51 mm | 0.45 m/s, 180° | 0 W/m² | - |
| 1778099281 | 11.67° C | 95% | 1005.4 hPa | 0.51 mm | 0 m/s | 0 W/m² | - |
| 1778099037 | 11.67° C | 94% | 1005.2 hPa | 0.51 mm | 0 m/s | 0 W/m² | - |
| 1778098854 | 11.67° C | 94% | 1005.2 hPa | 0.51 mm | 0.45 m/s, 103° | 0 W/m² | - |
| 1778098671 | 11.67° C | 94% | 1005.3 hPa | 0.51 mm | 0 m/s | 0 W/m² | - |
| 1778098488 | 11.67° C | 93% | 1005.5 hPa | 0.51 mm | 0.45 m/s, 300° | 0 W/m² | - |
| 1778098366 | 11.67° C | 93% | 1005.5 hPa | 0.51 mm | 0 m/s | 0 W/m² | - |
| 1778098184 | 11.67° C | 93% | 1005 hPa | 0.25 mm | 0.45 m/s, 28° | 0 W/m² | - |
| 1778098122 | 11.67° C | 93% | 1005.2 hPa | 0.25 mm | 0 m/s | 0 W/m² | - |
| 1778097634 | 11.67° C | 94% | 1005.3 hPa | 0 mm | 1.79 m/s, 307° | 0 W/m² | - |
| 1778097390 | 11.67° C | 95% | 1005.7 hPa | 3.05 mm | 0.89 m/s, 281° | 0 W/m² | - |
| 1778097146 | 11.67° C | 94% | 1005.7 hPa | 2.79 mm | 1.34 m/s, 243° | 0 W/m² | - |
| 1778096780 | 11.67° C | 94% | 1005.9 hPa | 2.79 mm | 0.45 m/s, 231° | 0 W/m² | - |
| 1778096232 | 11.67° C | 93% | 1005.7 hPa | 2.79 mm | 0 m/s | 0 W/m² | - |
| 1778096171 | 11.67° C | 93% | 1005.8 hPa | 2.79 mm | 0 m/s | 0 W/m² | - |
| 1778096048 | 11.67° C | 93% | 1005.6 hPa | 2.79 mm | 0.89 m/s, 274° | 0 W/m² | - |
| 1778095865 | 11.67° C | 93% | 1005.6 hPa | 2.79 mm | 0.89 m/s, 320° | 0 W/m² | - |
| 1778095499 | 11.67° C | 93% | 1005.5 hPa | 2.79 mm | 0.89 m/s, 271° | 0 W/m² | - |
| 1778094767 | 11.67° C | 92% | 1005.7 hPa | 2.54 mm | 0.45 m/s, 197° | 0 W/m² | - |
| 1778094645 | 11.67° C | 92% | 1005.4 hPa | 2.29 mm | 0.89 m/s, 202° | 0 W/m² | - |
| 1778094401 | 11.67° C | 91% | 1005.2 hPa | 2.03 mm | 0 m/s | 0 W/m² | - |
* Rain latest hour (hover to see other rain measurements)
** Current wind speed in m/s (hover to see current wind gust speed)